Pililaau — NBWY — position and weather

sailwx.info

Track history (hours):
 
Tides and Currents Weather Stations Pressure Air Temp Water Temp Dewpoint Dewpoint Depression Visibility Wind Speed Wind Dir Waves Ship Positions

Pililaau

Last reported at 2015-Feb-03 21:24 UTC. Time now 2015-Apr-27 22:14 UTC.
Position N 08°48' E 122°32'.
Warning: this ship's position is months out of date.

Type: Cargo ship. MMSI: 338806000.

Date/timePositionNaut miles runAvg speedWind from/ knotsBaromVisibWave heightAir tempDewpointWater temp
2015-Feb-03 21:24N 08°48' E 122°32'1719.0
2015-Feb-03 20:31N 08°52' E 122°49'1919.0
2015-Feb-03 19:31N 08°55' E 123°08'1718.1
2015-Feb-03 18:33N 08°58' E 123°25'1717.0
2015-Feb-03 17:34N 09°01' E 123°42'1817.1
2015-Feb-03 16:30N 09°12' E 123°57'1717.8
2015-Feb-03 15:33N 09°22' E 124°10'6017.4
2015-Feb-03 12:08N 09°46' E 125°06'1119.5
2015-Feb-03 11:34N 09°50' E 125°16'  
Track history (hours):
 
Tides and Currents Weather Stations Pressure Air Temp Water Temp Dewpoint Dewpoint Depression Visibility Wind Speed Wind Dir Waves Ship Positions

Pililaau

Last reported at 2015-Feb-03 21:24 UTC. Time now 2015-Apr-27 22:14 UTC.
Position N 08°48' E 122°32'.
Warning: this ship's position is months out of date.

Type: Cargo ship. MMSI: 338806000.

Date/timePositionNaut miles runAvg speedWind from/ knotsBaromVisibWave heightAir tempDewpointWater temp
2015-Feb-03 21:24N 08°48' E 122°32'1719.0
2015-Feb-03 20:31N 08°52' E 122°49'1919.0
2015-Feb-03 19:31N 08°55' E 123°08'1718.1
2015-Feb-03 18:33N 08°58' E 123°25'1717.0
2015-Feb-03 17:34N 09°01' E 123°42'1817.1
2015-Feb-03 16:30N 09°12' E 123°57'1717.8
2015-Feb-03 15:33N 09°22' E 124°10'6017.4
2015-Feb-03 12:08N 09°46' E 125°06'1119.5
2015-Feb-03 11:34N 09°50' E 125°16'  

Dump ship's entire track history